sensor_id;sensor_type;location;lat;lon;timestamp;temperature;humidity
79716;DHT22;69209;51.420;5.400;2023-04-25T00:01:20;11.60;85.80
79716;DHT22;69209;51.420;5.400;2023-04-25T00:03:47;11.60;85.90
79716;DHT22;69209;51.420;5.400;2023-04-25T00:06:12;11.60;86.00
79716;DHT22;69209;51.420;5.400;2023-04-25T00:08:38;11.60;86.00
79716;DHT22;69209;51.420;5.400;2023-04-25T00:11:03;11.60;86.00
79716;DHT22;69209;51.420;5.400;2023-04-25T00:13:29;11.60;86.00
79716;DHT22;69209;51.420;5.400;2023-04-25T00:15:55;11.60;86.00
79716;DHT22;69209;51.420;5.400;2023-04-25T00:18:21;11.60;86.10
79716;DHT22;69209;51.420;5.400;2023-04-25T00:20:47;11.60;86.20
79716;DHT22;69209;51.420;5.400;2023-04-25T00:23:13;11.60;86.20
79716;DHT22;69209;51.420;5.400;2023-04-25T00:25:43;11.60;86.20
79716;DHT22;69209;51.420;5.400;2023-04-25T00:28:09;11.60;86.20
79716;DHT22;69209;51.420;5.400;2023-04-25T00:30:35;11.60;86.20
79716;DHT22;69209;51.420;5.400;2023-04-25T00:33:00;11.60;86.20
79716;DHT22;69209;51.420;5.400;2023-04-25T00:35:26;11.60;86.30
79716;DHT22;69209;51.420;5.400;2023-04-25T00:37:51;11.60;86.30
79716;DHT22;69209;51.420;5.400;2023-04-25T00:40:17;11.60;86.30
79716;DHT22;69209;51.420;5.400;2023-04-25T00:42:42;11.50;86.40
79716;DHT22;69209;51.420;5.400;2023-04-25T00:45:09;11.60;86.50
79716;DHT22;69209;51.420;5.400;2023-04-25T00:47:37;11.50;86.50
79716;DHT22;69209;51.420;5.400;2023-04-25T00:50:03;11.50;86.50
79716;DHT22;69209;51.420;5.400;2023-04-25T00:52:29;11.50;86.50
79716;DHT22;69209;51.420;5.400;2023-04-25T00:54:54;11.50;86.60
79716;DHT22;69209;51.420;5.400;2023-04-25T00:57:20;11.50;86.60
79716;DHT22;69209;51.420;5.400;2023-04-25T00:59:45;11.50;86.60
79716;DHT22;69209;51.420;5.400;2023-04-25T01:02:14;11.50;86.60
79716;DHT22;69209;51.420;5.400;2023-04-25T01:04:40;11.40;86.60
79716;DHT22;69209;51.420;5.400;2023-04-25T01:07:05;11.40;86.60
79716;DHT22;69209;51.420;5.400;2023-04-25T01:09:31;11.40;86.70
79716;DHT22;69209;51.420;5.400;2023-04-25T01:11:59;11.40;86.80
79716;DHT22;69209;51.420;5.400;2023-04-25T01:14:26;11.30;86.80
79716;DHT22;69209;51.420;5.400;2023-04-25T01:16:51;11.30;86.80
79716;DHT22;69209;51.420;5.400;2023-04-25T01:19:18;11.40;86.90
79716;DHT22;69209;51.420;5.400;2023-04-25T01:21:44;11.30;86.80
79716;DHT22;69209;51.420;5.400;2023-04-25T01:24:10;11.30;87.50
79716;DHT22;69209;51.420;5.400;2023-04-25T01:26:36;11.30;86.80
79716;DHT22;69209;51.420;5.400;2023-04-25T01:29:01;11.30;86.80
79716;DHT22;69209;51.420;5.400;2023-04-25T01:31:28;11.30;86.80
79716;DHT22;69209;51.420;5.400;2023-04-25T01:33:55;11.30;86.80
79716;DHT22;69209;51.420;5.400;2023-04-25T01:36:20;11.20;86.80
79716;DHT22;69209;51.420;5.400;2023-04-25T01:38:46;11.20;86.80
79716;DHT22;69209;51.420;5.400;2023-04-25T01:41:13;11.20;86.80
79716;DHT22;69209;51.420;5.400;2023-04-25T01:43:39;11.10;86.60
79716;DHT22;69209;51.420;5.400;2023-04-25T01:46:05;11.10;86.70
79716;DHT22;69209;51.420;5.400;2023-04-25T01:48:30;11.10;86.60
79716;DHT22;69209;51.420;5.400;2023-04-25T01:50:56;11.00;86.50
79716;DHT22;69209;51.420;5.400;2023-04-25T01:53:21;11.00;86.60
79716;DHT22;69209;51.420;5.400;2023-04-25T01:55:47;11.00;86.50
79716;DHT22;69209;51.420;5.400;2023-04-25T01:58:13;11.00;86.60
79716;DHT22;69209;51.420;5.400;2023-04-25T02:00:39;11.00;86.50
79716;DHT22;69209;51.420;5.400;2023-04-25T02:03:06;10.90;86.40
79716;DHT22;69209;51.420;5.400;2023-04-25T02:05:38;10.90;87.10
79716;DHT22;69209;51.420;5.400;2023-04-25T02:08:05;10.90;86.40
79716;DHT22;69209;51.420;5.400;2023-04-25T02:10:30;10.90;86.30
79716;DHT22;69209;51.420;5.400;2023-04-25T02:12:56;10.90;86.40
79716;DHT22;69209;51.420;5.400;2023-04-25T02:15:22;10.90;86.50
79716;DHT22;69209;51.420;5.400;2023-04-25T02:17:47;10.80;86.50
79716;DHT22;69209;51.420;5.400;2023-04-25T02:20:14;10.90;86.60
79716;DHT22;69209;51.420;5.400;2023-04-25T02:22:41;10.90;86.70
79716;DHT22;69209;51.420;5.400;2023-04-25T02:25:07;10.90;86.80
79716;DHT22;69209;51.420;5.400;2023-04-25T02:27:33;10.90;86.80
79716;DHT22;69209;51.420;5.400;2023-04-25T02:29:58;10.90;86.80
79716;DHT22;69209;51.420;5.400;2023-04-25T02:32:24;10.90;86.90
79716;DHT22;69209;51.420;5.400;2023-04-25T02:34:49;10.90;86.90
79716;DHT22;69209;51.420;5.400;2023-04-25T02:37:15;10.90;87.00
79716;DHT22;69209;51.420;5.400;2023-04-25T02:39:40;10.90;87.00
79716;DHT22;69209;51.420;5.400;2023-04-25T02:42:06;10.90;87.00
79716;DHT22;69209;51.420;5.400;2023-04-25T02:44:31;10.90;87.00
79716;DHT22;69209;51.420;5.400;2023-04-25T02:46:56;10.90;87.00
79716;DHT22;69209;51.420;5.400;2023-04-25T02:49:22;10.90;87.00
79716;DHT22;69209;51.420;5.400;2023-04-25T02:51:48;10.90;87.10
79716;DHT22;69209;51.420;5.400;2023-04-25T02:54:13;10.80;87.00
79716;DHT22;69209;51.420;5.400;2023-04-25T02:56:38;10.80;87.00
79716;DHT22;69209;51.420;5.400;2023-04-25T02:59:04;10.80;87.00
79716;DHT22;69209;51.420;5.400;2023-04-25T03:01:29;10.80;87.10
79716;DHT22;69209;51.420;5.400;2023-04-25T03:03:55;10.80;87.10
79716;DHT22;69209;51.420;5.400;2023-04-25T03:06:20;10.80;87.10
79716;DHT22;69209;51.420;5.400;2023-04-25T03:08:46;10.70;87.10
79716;DHT22;69209;51.420;5.400;2023-04-25T03:11:11;10.80;87.20
79716;DHT22;69209;51.420;5.400;2023-04-25T03:13:37;10.70;87.10
79716;DHT22;69209;51.420;5.400;2023-04-25T03:16:02;10.70;87.20
79716;DHT22;69209;51.420;5.400;2023-04-25T03:18:28;10.70;87.20
79716;DHT22;69209;51.420;5.400;2023-04-25T03:20:53;10.70;87.20
79716;DHT22;69209;51.420;5.400;2023-04-25T03:23:19;10.70;87.20
79716;DHT22;69209;51.420;5.400;2023-04-25T03:25:45;10.70;87.20
79716;DHT22;69209;51.420;5.400;2023-04-25T03:28:10;10.70;87.30
79716;DHT22;69209;51.420;5.400;2023-04-25T03:30:36;10.70;87.30
79716;DHT22;69209;51.420;5.400;2023-04-25T03:33:01;10.60;87.20
79716;DHT22;69209;51.420;5.400;2023-04-25T03:35:27;10.60;87.30
79716;DHT22;69209;51.420;5.400;2023-04-25T03:37:52;10.60;87.40
79716;DHT22;69209;51.420;5.400;2023-04-25T03:40:18;10.60;87.40
79716;DHT22;69209;51.420;5.400;2023-04-25T03:42:43;10.60;87.40
79716;DHT22;69209;51.420;5.400;2023-04-25T03:45:09;10.60;87.40
79716;DHT22;69209;51.420;5.400;2023-04-25T03:47:35;10.60;87.50
79716;DHT22;69209;51.420;5.400;2023-04-25T03:50:00;10.60;87.50
79716;DHT22;69209;51.420;5.400;2023-04-25T03:52:27;10.60;87.50
79716;DHT22;69209;51.420;5.400;2023-04-25T03:54:53;10.60;87.60
79716;DHT22;69209;51.420;5.400;2023-04-25T03:57:18;10.60;87.50
79716;DHT22;69209;51.420;5.400;2023-04-25T03:59:43;10.60;87.60
79716;DHT22;69209;51.420;5.400;2023-04-25T04:02:09;10.60;87.60
79716;DHT22;69209;51.420;5.400;2023-04-25T04:04:35;10.60;87.70
79716;DHT22;69209;51.420;5.400;2023-04-25T04:07:00;10.60;87.60
79716;DHT22;69209;51.420;5.400;2023-04-25T04:09:26;10.60;87.70
79716;DHT22;69209;51.420;5.400;2023-04-25T04:11:52;10.60;87.70
79716;DHT22;69209;51.420;5.400;2023-04-25T04:14:18;10.60;87.70
79716;DHT22;69209;51.420;5.400;2023-04-25T04:16:43;10.60;87.70
79716;DHT22;69209;51.420;5.400;2023-04-25T04:19:10;10.60;87.70
79716;DHT22;69209;51.420;5.400;2023-04-25T04:21:35;10.50;87.70
79716;DHT22;69209;51.420;5.400;2023-04-25T04:24:01;10.50;87.70
79716;DHT22;69209;51.420;5.400;2023-04-25T04:26:27;10.60;87.90
79716;DHT22;69209;51.420;5.400;2023-04-25T04:28:53;10.60;87.90
79716;DHT22;69209;51.420;5.400;2023-04-25T04:31:22;10.60;87.80
79716;DHT22;69209;51.420;5.400;2023-04-25T04:33:48;10.60;87.80
79716;DHT22;69209;51.420;5.400;2023-04-25T04:36:13;10.60;87.80
79716;DHT22;69209;51.420;5.400;2023-04-25T04:38:39;10.60;87.80
79716;DHT22;69209;51.420;5.400;2023-04-25T04:41:05;10.60;87.90
79716;DHT22;69209;51.420;5.400;2023-04-25T04:43:31;10.60;87.90
79716;DHT22;69209;51.420;5.400;2023-04-25T04:46:00;10.60;88.00
79716;DHT22;69209;51.420;5.400;2023-04-25T04:48:25;10.60;87.90
79716;DHT22;69209;51.420;5.400;2023-04-25T04:50:51;10.60;88.00
79716;DHT22;69209;51.420;5.400;2023-04-25T04:53:17;10.60;88.00
79716;DHT22;69209;51.420;5.400;2023-04-25T04:55:42;10.60;88.00
79716;DHT22;69209;51.420;5.400;2023-04-25T04:58:08;10.60;87.90
79716;DHT22;69209;51.420;5.400;2023-04-25T05:00:33;10.70;88.00
79716;DHT22;69209;51.420;5.400;2023-04-25T05:02:59;10.70;88.00
79716;DHT22;69209;51.420;5.400;2023-04-25T05:05:25;10.70;87.90
79716;DHT22;69209;51.420;5.400;2023-04-25T05:07:50;10.70;87.90
79716;DHT22;69209;51.420;5.400;2023-04-25T05:10:16;10.80;87.80
79716;DHT22;69209;51.420;5.400;2023-04-25T05:12:42;10.80;87.80
79716;DHT22;69209;51.420;5.400;2023-04-25T05:15:08;10.80;87.80
79716;DHT22;69209;51.420;5.400;2023-04-25T05:17:33;10.80;87.80
79716;DHT22;69209;51.420;5.400;2023-04-25T05:19:59;10.80;87.70
79716;DHT22;69209;51.420;5.400;2023-04-25T05:22:25;11.00;87.70
79716;DHT22;69209;51.420;5.400;2023-04-25T05:24:51;11.30;86.80
79716;DHT22;69209;51.420;5.400;2023-04-25T05:27:17;11.80;85.20
79716;DHT22;69209;51.420;5.400;2023-04-25T05:29:42;11.80;84.40
79716;DHT22;69209;51.420;5.400;2023-04-25T05:32:08;11.80;84.40
79716;DHT22;69209;51.420;5.400;2023-04-25T05:34:34;11.80;84.50
79716;DHT22;69209;51.420;5.400;2023-04-25T05:37:00;11.80;84.50
79716;DHT22;69209;51.420;5.400;2023-04-25T05:39:25;11.80;84.40
79716;DHT22;69209;51.420;5.400;2023-04-25T05:41:51;12.00;84.10
79716;DHT22;69209;51.420;5.400;2023-04-25T05:44:17;12.10;83.90
79716;DHT22;69209;51.420;5.400;2023-04-25T05:46:43;12.20;83.80
79716;DHT22;69209;51.420;5.400;2023-04-25T05:49:08;12.30;83.50
79716;DHT22;69209;51.420;5.400;2023-04-25T05:51:34;12.20;83.50
79716;DHT22;69209;51.420;5.400;2023-04-25T05:53:59;12.20;83.60
79716;DHT22;69209;51.420;5.400;2023-04-25T05:56:25;12.20;84.10
79716;DHT22;69209;51.420;5.400;2023-04-25T05:58:51;12.20;84.40
79716;DHT22;69209;51.420;5.400;2023-04-25T06:01:16;12.20;84.50
79716;DHT22;69209;51.420;5.400;2023-04-25T06:03:42;12.20;84.60
79716;DHT22;69209;51.420;5.400;2023-04-25T06:06:08;12.20;84.70
79716;DHT22;69209;51.420;5.400;2023-04-25T06:08:34;12.30;84.70
79716;DHT22;69209;51.420;5.400;2023-04-25T06:11:00;12.30;84.50
79716;DHT22;69209;51.420;5.400;2023-04-25T06:13:25;12.40;84.40
79716;DHT22;69209;51.420;5.400;2023-04-25T06:15:51;12.40;84.20
79716;DHT22;69209;51.420;5.400;2023-04-25T06:18:16;12.60;84.40
79716;DHT22;69209;51.420;5.400;2023-04-25T06:20:42;12.70;83.40
79716;DHT22;69209;51.420;5.400;2023-04-25T06:23:07;12.80;83.00
79716;DHT22;69209;51.420;5.400;2023-04-25T06:25:33;12.90;83.00
79716;DHT22;69209;51.420;5.400;2023-04-25T06:27:58;13.00;82.70
79716;DHT22;69209;51.420;5.400;2023-04-25T06:30:24;13.20;82.60
79716;DHT22;69209;51.420;5.400;2023-04-25T06:32:51;13.60;82.10
79716;DHT22;69209;51.420;5.400;2023-04-25T06:35:17;13.80;80.00
79716;DHT22;69209;51.420;5.400;2023-04-25T06:37:42;13.90;79.70
79716;DHT22;69209;51.420;5.400;2023-04-25T06:40:08;14.00;79.60
79716;DHT22;69209;51.420;5.400;2023-04-25T06:42:33;14.10;79.40
79716;DHT22;69209;51.420;5.400;2023-04-25T06:44:59;14.20;79.00
79716;DHT22;69209;51.420;5.400;2023-04-25T06:47:24;14.50;78.50
79716;DHT22;69209;51.420;5.400;2023-04-25T06:49:50;14.80;77.40
79716;DHT22;69209;51.420;5.400;2023-04-25T06:52:15;15.30;76.20
79716;DHT22;69209;51.420;5.400;2023-04-25T06:54:43;15.50;75.00
79716;DHT22;69209;51.420;5.400;2023-04-25T06:57:08;15.60;75.00
79716;DHT22;69209;51.420;5.400;2023-04-25T06:59:34;16.50;73.50
79716;DHT22;69209;51.420;5.400;2023-04-25T07:02:00;17.40;70.20
79716;DHT22;69209;51.420;5.400;2023-04-25T07:04:25;18.20;68.00
79716;DHT22;69209;51.420;5.400;2023-04-25T07:06:51;18.90;66.30
79716;DHT22;69209;51.420;5.400;2023-04-25T07:09:16;19.60;64.60
79716;DHT22;69209;51.420;5.400;2023-04-25T07:11:42;20.30;63.30
79716;DHT22;69209;51.420;5.400;2023-04-25T07:14:07;20.90;61.90
79716;DHT22;69209;51.420;5.400;2023-04-25T07:16:33;21.50;60.80
79716;DHT22;69209;51.420;5.400;2023-04-25T07:18:58;22.00;59.60
79716;DHT22;69209;51.420;5.400;2023-04-25T07:21:24;22.60;58.60
79716;DHT22;69209;51.420;5.400;2023-04-25T07:23:50;23.10;57.70
79716;DHT22;69209;51.420;5.400;2023-04-25T07:26:16;23.60;57.00
79716;DHT22;69209;51.420;5.400;2023-04-25T07:28:41;24.20;56.10
79716;DHT22;69209;51.420;5.400;2023-04-25T07:31:07;24.70;55.40
79716;DHT22;69209;51.420;5.400;2023-04-25T07:33:33;25.20;54.50
79716;DHT22;69209;51.420;5.400;2023-04-25T07:35:59;25.80;53.80
79716;DHT22;69209;51.420;5.400;2023-04-25T07:38:25;26.20;53.20
79716;DHT22;69209;51.420;5.400;2023-04-25T07:40:50;26.70;52.60
79716;DHT22;69209;51.420;5.400;2023-04-25T07:43:15;26.70;52.80
79716;DHT22;69209;51.420;5.400;2023-04-25T07:45:45;26.30;53.40
79716;DHT22;69209;51.420;5.400;2023-04-25T07:48:11;26.00;53.80
79716;DHT22;69209;51.420;5.400;2023-04-25T07:50:36;25.90;54.00
79716;DHT22;69209;51.420;5.400;2023-04-25T07:53:02;26.30;53.70
79716;DHT22;69209;51.420;5.400;2023-04-25T07:55:28;26.70;53.00
79716;DHT22;69209;51.420;5.400;2023-04-25T07:57:53;27.10;52.60
79716;DHT22;69209;51.420;5.400;2023-04-25T08:00:19;26.70;53.20
79716;DHT22;69209;51.420;5.400;2023-04-25T08:02:45;26.60;53.70
79716;DHT22;69209;51.420;5.400;2023-04-25T08:05:10;26.70;53.70
79716;DHT22;69209;51.420;5.400;2023-04-25T08:07:39;26.60;53.90
79716;DHT22;69209;51.420;5.400;2023-04-25T08:10:06;26.70;53.90
79716;DHT22;69209;51.420;5.400;2023-04-25T08:12:32;27.10;53.40
79716;DHT22;69209;51.420;5.400;2023-04-25T08:14:57;27.00;53.30
79716;DHT22;69209;51.420;5.400;2023-04-25T08:17:23;26.70;54.30
79716;DHT22;69209;51.420;5.400;2023-04-25T08:19:48;26.50;54.60
79716;DHT22;69209;51.420;5.400;2023-04-25T08:22:14;26.10;55.50
79716;DHT22;69209;51.420;5.400;2023-04-25T08:24:40;25.80;56.10
79716;DHT22;69209;51.420;5.400;2023-04-25T08:27:06;25.30;57.10
79716;DHT22;69209;51.420;5.400;2023-04-25T08:29:33;24.70;58.40
79716;DHT22;69209;51.420;5.400;2023-04-25T08:31:58;24.10;59.50
79716;DHT22;69209;51.420;5.400;2023-04-25T08:34:24;23.60;60.30
79716;DHT22;69209;51.420;5.400;2023-04-25T08:36:50;23.20;61.30
79716;DHT22;69209;51.420;5.400;2023-04-25T08:39:16;22.80;62.40
79716;DHT22;69209;51.420;5.400;2023-04-25T08:41:42;22.50;63.40
79716;DHT22;69209;51.420;5.400;2023-04-25T08:44:09;22.20;64.20
79716;DHT22;69209;51.420;5.400;2023-04-25T08:46:35;21.90;64.40
79716;DHT22;69209;51.420;5.400;2023-04-25T08:49:02;21.70;65.30
79716;DHT22;69209;51.420;5.400;2023-04-25T08:51:32;21.60;65.50
79716;DHT22;69209;51.420;5.400;2023-04-25T08:54:02;21.40;65.50
79716;DHT22;69209;51.420;5.400;2023-04-25T08:56:32;21.40;65.80
79716;DHT22;69209;51.420;5.400;2023-04-25T08:59:00;21.30;65.70
79716;DHT22;69209;51.420;5.400;2023-04-25T09:01:26;21.30;66.20
79716;DHT22;69209;51.420;5.400;2023-04-25T09:03:51;21.30;65.60
79716;DHT22;69209;51.420;5.400;2023-04-25T09:06:17;21.40;65.70
79716;DHT22;69209;51.420;5.400;2023-04-25T09:08:43;21.40;66.00
79716;DHT22;69209;51.420;5.400;2023-04-25T09:11:08;21.60;65.00
79716;DHT22;69209;51.420;5.400;2023-04-25T09:13:34;21.80;64.50
79716;DHT22;69209;51.420;5.400;2023-04-25T09:16:00;22.10;64.00
79716;DHT22;69209;51.420;5.400;2023-04-25T09:18:29;22.40;63.40
79716;DHT22;69209;51.420;5.400;2023-04-25T09:20:56;22.70;62.70
79716;DHT22;69209;51.420;5.400;2023-04-25T09:23:22;22.90;62.00
79716;DHT22;69209;51.420;5.400;2023-04-25T09:25:52;23.30;61.40
79716;DHT22;69209;51.420;5.400;2023-04-25T09:28:25;23.90;60.00
79716;DHT22;69209;51.420;5.400;2023-04-25T09:30:57;24.20;59.20
79716;DHT22;69209;51.420;5.400;2023-04-25T09:33:29;24.50;59.00
79716;DHT22;69209;51.420;5.400;2023-04-25T09:36:01;24.90;58.20
79716;DHT22;69209;51.420;5.400;2023-04-25T09:38:26;25.20;57.50
79716;DHT22;69209;51.420;5.400;2023-04-25T09:40:54;25.50;57.40
79716;DHT22;69209;51.420;5.400;2023-04-25T09:43:21;25.80;56.80
79716;DHT22;69209;51.420;5.400;2023-04-25T09:45:47;26.00;56.70
79716;DHT22;69209;51.420;5.400;2023-04-25T09:48:19;26.00;56.80
79716;DHT22;69209;51.420;5.400;2023-04-25T09:51:06;26.00;56.80
79716;DHT22;69209;51.420;5.400;2023-04-25T09:53:32;25.90;56.90
79716;DHT22;69209;51.420;5.400;2023-04-25T09:55:58;25.90;57.10
79716;DHT22;69209;51.420;5.400;2023-04-25T09:58:25;25.90;56.90
79716;DHT22;69209;51.420;5.400;2023-04-25T10:00:51;26.00;57.00
79716;DHT22;69209;51.420;5.400;2023-04-25T10:03:19;26.20;56.80
79716;DHT22;69209;51.420;5.400;2023-04-25T10:05:46;26.40;56.30
79716;DHT22;69209;51.420;5.400;2023-04-25T10:08:13;26.90;55.60
79716;DHT22;69209;51.420;5.400;2023-04-25T10:10:39;27.30;54.90
79716;DHT22;69209;51.420;5.400;2023-04-25T10:13:05;27.70;54.30
79716;DHT22;69209;51.420;5.400;2023-04-25T10:15:32;28.00;53.90
79716;DHT22;69209;51.420;5.400;2023-04-25T10:18:00;28.40;53.30
79716;DHT22;69209;51.420;5.400;2023-04-25T10:20:26;28.60;52.90
79716;DHT22;69209;51.420;5.400;2023-04-25T10:22:52;28.80;52.70
79716;DHT22;69209;51.420;5.400;2023-04-25T10:25:22;29.00;52.40
79716;DHT22;69209;51.420;5.400;2023-04-25T10:27:50;29.10;52.10
79716;DHT22;69209;51.420;5.400;2023-04-25T10:30:16;29.00;52.50
79716;DHT22;69209;51.420;5.400;2023-04-25T10:32:42;28.80;52.60
79716;DHT22;69209;51.420;5.400;2023-04-25T10:35:14;28.50;53.10
79716;DHT22;69209;51.420;5.400;2023-04-25T10:37:56;28.60;53.30
79716;DHT22;69209;51.420;5.400;2023-04-25T10:40:22;28.70;53.00
79716;DHT22;69209;51.420;5.400;2023-04-25T10:42:48;28.30;53.30
79716;DHT22;69209;51.420;5.400;2023-04-25T10:45:13;27.90;54.10
79716;DHT22;69209;51.420;5.400;2023-04-25T10:47:45;27.50;54.60
79716;DHT22;69209;51.420;5.400;2023-04-25T10:50:11;27.20;55.40
79716;DHT22;69209;51.420;5.400;2023-04-25T10:52:40;26.80;56.00
79716;DHT22;69209;51.420;5.400;2023-04-25T10:55:06;26.50;56.50
79716;DHT22;69209;51.420;5.400;2023-04-25T10:59:58;25.80;57.70
79716;DHT22;69209;51.420;5.400;2023-04-25T11:02:25;25.40;58.50
79716;DHT22;69209;51.420;5.400;2023-04-25T11:04:51;25.10;58.90
79716;DHT22;69209;51.420;5.400;2023-04-25T11:09:56;24.60;59.70
79716;DHT22;69209;51.420;5.400;2023-04-25T11:12:21;24.80;59.40
79716;DHT22;69209;51.420;5.400;2023-04-25T11:14:49;24.90;59.20
79716;DHT22;69209;51.420;5.400;2023-04-25T11:17:15;25.30;58.20
79716;DHT22;69209;51.420;5.400;2023-04-25T11:19:40;25.50;57.60
79716;DHT22;69209;51.420;5.400;2023-04-25T11:22:06;25.80;57.00
79716;DHT22;69209;51.420;5.400;2023-04-25T11:24:33;26.00;56.70
79716;DHT22;69209;51.420;5.400;2023-04-25T11:27:02;25.90;56.60
79716;DHT22;69209;51.420;5.400;2023-04-25T11:29:29;25.80;56.60
79716;DHT22;69209;51.420;5.400;2023-04-25T11:31:55;25.50;57.20
79716;DHT22;69209;51.420;5.400;2023-04-25T11:34:24;25.10;57.70
79716;DHT22;69209;51.420;5.400;2023-04-25T11:36:50;24.70;58.40
79716;DHT22;69209;51.420;5.400;2023-04-25T11:39:17;24.30;59.00
79716;DHT22;69209;51.420;5.400;2023-04-25T11:41:43;24.00;59.70
79716;DHT22;69209;51.420;5.400;2023-04-25T11:44:09;23.70;60.50
79716;DHT22;69209;51.420;5.400;2023-04-25T11:46:34;23.40;61.20
79716;DHT22;69209;51.420;5.400;2023-04-25T11:49:00;23.20;61.80
79716;DHT22;69209;51.420;5.400;2023-04-25T11:51:26;23.40;61.70
79716;DHT22;69209;51.420;5.400;2023-04-25T11:53:52;23.80;60.50
79716;DHT22;69209;51.420;5.400;2023-04-25T11:56:17;24.20;59.40
79716;DHT22;69209;51.420;5.400;2023-04-25T11:59:17;24.70;58.50
79716;DHT22;69209;51.420;5.400;2023-04-25T12:01:36;24.90;58.10
79716;DHT22;69209;51.420;5.400;2023-04-25T12:04:12;25.00;57.80
79716;DHT22;69209;51.420;5.400;2023-04-25T12:06:38;25.10;57.60
79716;DHT22;69209;51.420;5.400;2023-04-25T12:09:07;25.20;57.20
79716;DHT22;69209;51.420;5.400;2023-04-25T12:11:32;25.10;57.30
79716;DHT22;69209;51.420;5.400;2023-04-25T12:14:04;24.90;57.80
79716;DHT22;69209;51.420;5.400;2023-04-25T12:16:45;24.70;58.40
79716;DHT22;69209;51.420;5.400;2023-04-25T12:19:14;24.40;58.80
79716;DHT22;69209;51.420;5.400;2023-04-25T12:21:40;24.20;59.20
79716;DHT22;69209;51.420;5.400;2023-04-25T12:24:09;24.00;59.70
79716;DHT22;69209;51.420;5.400;2023-04-25T12:26:48;23.90;60.10
79716;DHT22;69209;51.420;5.400;2023-04-25T12:29:23;23.70;60.20
79716;DHT22;69209;51.420;5.400;2023-04-25T12:31:50;23.60;60.50
79716;DHT22;69209;51.420;5.400;2023-04-25T12:34:17;23.60;60.80
79716;DHT22;69209;51.420;5.400;2023-04-25T12:36:42;23.50;60.70
79716;DHT22;69209;51.420;5.400;2023-04-25T12:39:08;23.60;60.70
79716;DHT22;69209;51.420;5.400;2023-04-25T12:41:33;23.60;60.40
79716;DHT22;69209;51.420;5.400;2023-04-25T12:43:59;23.60;60.40
79716;DHT22;69209;51.420;5.400;2023-04-25T12:46:24;23.70;60.20
79716;DHT22;69209;51.420;5.400;2023-04-25T12:48:50;23.70;60.20
79716;DHT22;69209;51.420;5.400;2023-04-25T12:51:16;23.50;60.70
79716;DHT22;69209;51.420;5.400;2023-04-25T12:53:41;23.20;61.10
79716;DHT22;69209;51.420;5.400;2023-04-25T12:56:07;23.00;61.70
79716;DHT22;69209;51.420;5.400;2023-04-25T12:58:33;22.80;62.30
79716;DHT22;69209;51.420;5.400;2023-04-25T13:00:59;22.60;62.60
79716;DHT22;69209;51.420;5.400;2023-04-25T13:03:24;22.50;63.00
79716;DHT22;69209;51.420;5.400;2023-04-25T13:05:51;22.40;63.20
79716;DHT22;69209;51.420;5.400;2023-04-25T13:08:20;22.30;63.30
79716;DHT22;69209;51.420;5.400;2023-04-25T13:10:49;22.20;63.40
79716;DHT22;69209;51.420;5.400;2023-04-25T13:13:15;22.10;63.80
79716;DHT22;69209;51.420;5.400;2023-04-25T13:15:41;21.90;64.00
79716;DHT22;69209;51.420;5.400;2023-04-25T13:18:07;21.80;64.20
79716;DHT22;69209;51.420;5.400;2023-04-25T13:20:32;21.70;64.40
79716;DHT22;69209;51.420;5.400;2023-04-25T13:22:58;21.70;64.70
79716;DHT22;69209;51.420;5.400;2023-04-25T13:25:23;21.60;64.50
79716;DHT22;69209;51.420;5.400;2023-04-25T13:27:50;21.60;64.80
79716;DHT22;69209;51.420;5.400;2023-04-25T13:30:15;21.50;64.90
79716;DHT22;69209;51.420;5.400;2023-04-25T13:32:41;21.40;64.90
79716;DHT22;69209;51.420;5.400;2023-04-25T13:35:07;21.40;64.80
79716;DHT22;69209;51.420;5.400;2023-04-25T13:37:34;21.40;64.80
79716;DHT22;69209;51.420;5.400;2023-04-25T13:40:00;21.40;65.00
79716;DHT22;69209;51.420;5.400;2023-04-25T13:42:26;21.30;65.20
79716;DHT22;69209;51.420;5.400;2023-04-25T13:44:51;21.10;65.60
79716;DHT22;69209;51.420;5.400;2023-04-25T13:47:17;21.00;65.90
79716;DHT22;69209;51.420;5.400;2023-04-25T13:49:42;20.80;66.20
79716;DHT22;69209;51.420;5.400;2023-04-25T13:52:08;20.70;66.80
79716;DHT22;69209;51.420;5.400;2023-04-25T13:54:33;20.60;67.00
79716;DHT22;69209;51.420;5.400;2023-04-25T13:56:59;20.50;67.20
79716;DHT22;69209;51.420;5.400;2023-04-25T13:59:25;20.30;67.30
79716;DHT22;69209;51.420;5.400;2023-04-25T14:01:51;20.20;67.60
79716;DHT22;69209;51.420;5.400;2023-04-25T14:04:16;20.00;67.80
79716;DHT22;69209;51.420;5.400;2023-04-25T14:06:42;19.90;68.10
79716;DHT22;69209;51.420;5.400;2023-04-25T14:09:08;19.80;68.00
79716;DHT22;69209;51.420;5.400;2023-04-25T14:11:38;19.80;68.20
79716;DHT22;69209;51.420;5.400;2023-04-25T14:14:04;19.70;68.20
79716;DHT22;69209;51.420;5.400;2023-04-25T14:16:30;19.70;68.20
79716;DHT22;69209;51.420;5.400;2023-04-25T14:18:57;19.70;68.20
79716;DHT22;69209;51.420;5.400;2023-04-25T14:21:23;19.70;68.10
79716;DHT22;69209;51.420;5.400;2023-04-25T14:23:48;19.80;68.00
79716;DHT22;69209;51.420;5.400;2023-04-25T14:26:14;19.90;67.70
79716;DHT22;69209;51.420;5.400;2023-04-25T14:28:39;19.90;67.60
79716;DHT22;69209;51.420;5.400;2023-04-25T14:31:05;19.80;67.80
79716;DHT22;69209;51.420;5.400;2023-04-25T14:33:31;19.70;68.20
79716;DHT22;69209;51.420;5.400;2023-04-25T14:35:56;19.60;68.30
79716;DHT22;69209;51.420;5.400;2023-04-25T14:38:22;19.50;68.60
79716;DHT22;69209;51.420;5.400;2023-04-25T14:40:49;19.30;68.80
79716;DHT22;69209;51.420;5.400;2023-04-25T14:43:14;19.20;68.80
79716;DHT22;69209;51.420;5.400;2023-04-25T14:45:40;19.10;68.80
79716;DHT22;69209;51.420;5.400;2023-04-25T14:48:05;19.10;68.90
79716;DHT22;69209;51.420;5.400;2023-04-25T14:50:32;19.00;68.90
79716;DHT22;69209;51.420;5.400;2023-04-25T14:52:57;19.00;68.80
79716;DHT22;69209;51.420;5.400;2023-04-25T14:55:26;18.90;69.00
79716;DHT22;69209;51.420;5.400;2023-04-25T14:57:52;18.90;68.80
79716;DHT22;69209;51.420;5.400;2023-04-25T15:00:18;18.90;68.90
79716;DHT22;69209;51.420;5.400;2023-04-25T15:02:45;18.90;68.80
79716;DHT22;69209;51.420;5.400;2023-04-25T15:05:12;18.90;68.70
79716;DHT22;69209;51.420;5.400;2023-04-25T15:07:38;18.90;68.60
79716;DHT22;69209;51.420;5.400;2023-04-25T15:10:06;19.00;68.70
79716;DHT22;69209;51.420;5.400;2023-04-25T15:12:36;19.00;68.60
79716;DHT22;69209;51.420;5.400;2023-04-25T15:15:02;19.00;68.60
79716;DHT22;69209;51.420;5.400;2023-04-25T15:17:28;19.00;68.40
79716;DHT22;69209;51.420;5.400;2023-04-25T15:19:56;19.00;68.30
79716;DHT22;69209;51.420;5.400;2023-04-25T15:22:22;19.00;68.30
79716;DHT22;69209;51.420;5.400;2023-04-25T15:24:47;19.00;68.30
79716;DHT22;69209;51.420;5.400;2023-04-25T15:27:13;18.90;68.10
79716;DHT22;69209;51.420;5.400;2023-04-25T15:29:38;19.00;68.20